createdAt,value
2022-10-13T00:01:18.283Z,5.10
2022-10-13T00:03:47.336Z,3.95
2022-10-13T00:06:25.677Z,8.75
2022-10-13T00:08:54.157Z,7.10
2022-10-13T00:11:24.847Z,5.97
2022-10-13T00:13:54.972Z,4.20
2022-10-13T00:16:22.919Z,3.83
2022-10-13T00:18:51.326Z,2.75
2022-10-13T00:21:22.082Z,5.05
2022-10-13T00:23:50.995Z,4.53
2022-10-13T00:26:22.440Z,4.90
2022-10-13T00:28:52.477Z,4.45
2022-10-13T00:31:22.595Z,6.80
2022-10-13T00:33:50.294Z,5.63
2022-10-13T00:36:20.363Z,7.28
2022-10-13T00:38:47.879Z,4.97
2022-10-13T00:41:16.156Z,4.63
2022-10-13T00:43:52.832Z,5.38
2022-10-13T00:46:22.625Z,4.97
2022-10-13T00:49:04.829Z,8.40
2022-10-13T00:51:35.057Z,4.88
2022-10-13T00:54:05.985Z,3.97
2022-10-13T00:56:35.979Z,7.30
2022-10-13T00:59:10.188Z,6.68
2022-10-13T01:01:39.662Z,4.15
2022-10-13T01:04:06.926Z,4.97
2022-10-13T01:06:34.687Z,5.13
2022-10-13T01:09:02.070Z,5.90
2022-10-13T01:11:36.718Z,6.43
2022-10-13T01:14:33.975Z,3.53
2022-10-13T01:17:01.446Z,4.18
2022-10-13T01:19:31.478Z,6.45
2022-10-13T01:22:13.786Z,4.55
2022-10-13T01:24:43.895Z,4.25
2022-10-13T01:27:40.197Z,5.00
2022-10-13T01:30:12.494Z,4.90
2022-10-13T01:33:02.630Z,5.75
2022-10-13T01:35:50.846Z,5.38
2022-10-13T01:38:25.422Z,3.50
2022-10-13T01:41:04.797Z,4.90
2022-10-13T01:43:50.963Z,5.40
2022-10-13T01:46:25.014Z,5.97
2022-10-13T01:48:56.307Z,4.57
2022-10-13T01:51:27.369Z,6.78
2022-10-13T01:53:55.316Z,7.55
2022-10-13T01:56:22.833Z,6.72
2022-10-13T01:58:52.471Z,5.50
2022-10-13T02:01:32.046Z,4.82
2022-10-13T02:04:08.210Z,6.80
2022-10-13T02:06:53.280Z,5.63
2022-10-13T02:09:41.589Z,5.45
2022-10-13T02:12:30.470Z,6.15
2022-10-13T02:14:59.827Z,6.65
2022-10-13T02:17:29.170Z,5.18
2022-10-13T02:19:57.106Z,5.22
2022-10-13T02:22:32.340Z,8.77
2022-10-13T02:25:06.111Z,5.57
2022-10-13T02:27:33.763Z,7.43
2022-10-13T02:30:01.328Z,5.43
2022-10-13T02:32:33.561Z,6.28
2022-10-13T02:35:00.820Z,4.43
2022-10-13T02:37:28.517Z,4.28
2022-10-13T02:39:55.848Z,6.25
2022-10-13T02:42:23.558Z,4.70
2022-10-13T02:44:56.128Z,6.32
2022-10-13T02:47:23.750Z,8.10
2022-10-13T02:49:50.860Z,7.90
2022-10-13T02:52:18.585Z,5.75
2022-10-13T02:54:46.840Z,7.82
2022-10-13T02:57:14.108Z,8.20
2022-10-13T02:59:44.113Z,6.40
2022-10-13T03:02:11.964Z,7.30
2022-10-13T03:04:40.093Z,10.23
2022-10-13T03:07:07.603Z,6.20
2022-10-13T03:09:36.412Z,7.97
2022-10-13T03:12:03.943Z,8.70
2022-10-13T03:14:31.292Z,7.82
2022-10-13T03:16:58.506Z,8.82
2022-10-13T03:19:25.662Z,8.02
2022-10-13T03:21:52.877Z,12.05
2022-10-13T03:24:20.232Z,7.35
2022-10-13T03:26:47.875Z,13.25
2022-10-13T03:29:18.725Z,6.47
2022-10-13T03:31:45.817Z,9.35
2022-10-13T03:34:15.661Z,3.60
2022-10-13T03:36:43.290Z,9.57
2022-10-13T03:39:10.494Z,6.18
2022-10-13T03:41:38.228Z,6.70
2022-10-13T03:44:06.206Z,9.13
2022-10-13T03:46:34.046Z,7.88
2022-10-13T03:49:01.970Z,9.52
2022-10-13T03:51:30.304Z,7.03
2022-10-13T03:53:57.704Z,10.85
2022-10-13T03:56:26.706Z,6.47
2022-10-13T03:59:00.102Z,9.48
2022-10-13T04:01:30.249Z,12.73
2022-10-13T04:03:59.224Z,8.85
2022-10-13T04:06:26.979Z,10.98
2022-10-13T04:08:55.213Z,13.60
2022-10-13T04:11:22.776Z,11.23
2022-10-13T04:13:59.057Z,8.63
2022-10-13T04:16:28.939Z,11.98
2022-10-13T04:19:05.479Z,16.40
2022-10-13T04:21:34.785Z,23.92
2022-10-13T04:24:03.432Z,24.83
2022-10-13T04:26:33.311Z,23.10
2022-10-13T04:29:09.423Z,18.95
2022-10-13T04:31:37.399Z,19.35
2022-10-13T04:34:05.449Z,27.13
2022-10-13T04:36:33.885Z,22.73
2022-10-13T04:39:01.158Z,18.08
2022-10-13T04:41:29.296Z,19.35
2022-10-13T04:43:56.665Z,21.00
2022-10-13T04:46:27.350Z,22.75
2022-10-13T04:48:57.845Z,21.83
2022-10-13T04:51:33.057Z,27.10
2022-10-13T04:54:03.072Z,19.25
2022-10-13T04:56:30.477Z,19.02
2022-10-13T04:59:06.080Z,18.77
2022-10-13T05:01:34.743Z,21.05
2022-10-13T05:04:04.993Z,20.45
2022-10-13T05:06:59.003Z,23.67
2022-10-13T05:09:28.422Z,18.42
2022-10-13T05:11:55.891Z,21.95
2022-10-13T05:14:23.786Z,19.55
2022-10-13T05:16:52.128Z,21.05
2022-10-13T05:19:20.423Z,26.30
2022-10-13T05:21:49.749Z,23.40
2022-10-13T05:24:16.973Z,22.25
2022-10-13T05:26:47.686Z,22.65
2022-10-13T05:29:15.573Z,24.15
2022-10-13T05:31:42.831Z,17.77
2022-10-13T05:34:11.426Z,21.30
2022-10-13T05:36:38.558Z,15.10
2022-10-13T05:39:08.512Z,17.02
2022-10-13T05:41:35.676Z,12.95
2022-10-13T05:44:09.241Z,18.02
2022-10-13T05:46:42.705Z,20.20
2022-10-13T05:49:11.151Z,19.23
2022-10-13T05:51:47.889Z,17.15
2022-10-13T05:54:16.064Z,17.40
2022-10-13T05:56:59.521Z,15.45
2022-10-13T06:01:58.716Z,11.52
2022-10-13T06:04:32.028Z,11.90
2022-10-13T06:06:59.690Z,11.32
2022-10-13T06:09:35.837Z,18.17
2022-10-13T06:12:03.153Z,14.13
2022-10-13T06:14:30.763Z,20.75
2022-10-13T06:16:57.994Z,9.52
2022-10-13T06:19:25.320Z,18.42
2022-10-13T06:21:52.710Z,19.98
2022-10-13T06:24:20.541Z,23.13
2022-10-13T06:26:48.282Z,14.07
2022-10-13T06:29:15.698Z,35.85
2022-10-13T06:31:43.344Z,24.48
2022-10-13T06:34:13.039Z,20.08
2022-10-13T06:36:45.560Z,21.27
2022-10-13T06:39:14.673Z,32.55
2022-10-13T06:41:42.129Z,35.78
2022-10-13T06:44:09.769Z,44.40
2022-10-13T06:46:37.020Z,22.13
2022-10-13T06:49:04.296Z,30.23
2022-10-13T06:51:31.506Z,35.03
2022-10-13T06:53:58.978Z,33.60
2022-10-13T06:56:27.971Z,20.50
2022-10-13T06:58:57.955Z,15.10
2022-10-13T07:01:25.348Z,18.05
2022-10-13T07:03:54.663Z,18.50
2022-10-13T07:06:22.836Z,13.35
2022-10-13T07:08:51.217Z,16.25
2022-10-13T07:11:20.450Z,18.00
2022-10-13T07:13:54.484Z,8.52
2022-10-13T07:16:22.002Z,8.30
2022-10-13T07:18:50.086Z,9.15
2022-10-13T07:21:19.336Z,8.77
2022-10-13T07:23:46.597Z,7.50
2022-10-13T07:26:16.471Z,11.18
2022-10-13T07:28:45.018Z,5.18
2022-10-13T07:31:15.329Z,7.35
2022-10-13T07:33:44.549Z,7.35
2022-10-13T07:36:15.179Z,5.82
2022-10-13T07:38:44.163Z,7.82
2022-10-13T07:41:12.965Z,6.47
2022-10-13T07:43:41.174Z,4.80
2022-10-13T07:46:08.930Z,6.70
2022-10-13T07:48:37.138Z,7.35
2022-10-13T07:51:13.043Z,10.00
2022-10-13T07:53:43.018Z,5.22
2022-10-13T07:56:13.402Z,7.95
2022-10-13T07:58:44.307Z,8.80
2022-10-13T08:01:12.864Z,6.22
2022-10-13T08:03:45.610Z,6.45
2022-10-13T08:06:19.364Z,7.00
2022-10-13T08:08:47.865Z,6.78
2022-10-13T08:11:18.365Z,5.47
2022-10-13T08:13:51.061Z,8.43
2022-10-13T08:16:25.186Z,5.43
2022-10-13T08:18:53.117Z,5.60
2022-10-13T08:24:14.441Z,6.68
2022-10-13T08:26:43.139Z,6.32
2022-10-13T08:29:27.239Z,4.88
2022-10-13T08:31:55.940Z,4.00
2022-10-13T08:34:24.206Z,4.97
2022-10-13T08:36:54.830Z,3.72
2022-10-13T08:39:24.847Z,7.13
2022-10-13T08:41:53.291Z,9.52
2022-10-13T08:45:21.899Z,6.97
2022-10-13T08:47:47.357Z,6.15
2022-10-13T08:50:29.145Z,3.75
2022-10-13T08:53:05.464Z,4.57
2022-10-13T08:55:32.635Z,5.18
2022-10-13T08:58:06.476Z,4.78
2022-10-13T09:00:33.670Z,5.63
2022-10-13T09:03:20.906Z,4.05
2022-10-13T09:06:29.445Z,5.88
2022-10-13T09:09:06.193Z,3.65
2022-10-13T09:11:48.232Z,2.97
2022-10-13T09:14:24.683Z,7.15
2022-10-13T09:16:56.352Z,3.63
2022-10-13T09:19:34.462Z,3.92
2022-10-13T09:22:25.963Z,4.82
2022-10-13T09:25:21.672Z,3.17
2022-10-13T09:27:57.228Z,4.88
2022-10-13T09:30:38.670Z,5.72
2022-10-13T09:33:09.205Z,3.20
2022-10-13T09:35:42.615Z,5.40
2022-10-13T09:38:25.286Z,4.15
2022-10-13T09:41:09.541Z,3.40
2022-10-13T09:46:26.040Z,4.28
2022-10-13T09:49:03.116Z,3.58
2022-10-13T09:51:43.101Z,5.80
2022-10-13T09:54:36.426Z,3.38
2022-10-13T09:57:24.883Z,3.42
2022-10-13T10:00:25.511Z,2.83
2022-10-13T10:03:10.822Z,4.43
2022-10-13T10:05:57.372Z,3.28
2022-10-13T10:09:01.416Z,3.75
2022-10-13T10:11:33.687Z,3.28
2022-10-13T10:14:16.453Z,2.58
2022-10-13T10:16:50.871Z,4.32
2022-10-13T10:19:25.281Z,4.18
2022-10-13T10:21:58.417Z,4.03
2022-10-13T10:24:27.898Z,6.35
2022-10-13T10:27:06.150Z,2.78
2022-10-13T10:30:00.985Z,3.25
2022-10-13T10:32:33.386Z,5.30
2022-10-13T10:35:14.660Z,2.95
2022-10-13T10:38:01.881Z,3.30
2022-10-13T10:41:25.112Z,3.05
2022-10-13T10:43:55.551Z,3.28
2022-10-13T10:46:24.418Z,3.38
2022-10-13T10:48:58.704Z,2.30
2022-10-13T10:51:32.209Z,3.30
2022-10-13T10:54:15.411Z,2.30
2022-10-13T10:57:12.268Z,1.83
2022-10-13T10:59:58.147Z,2.88
2022-10-13T11:02:38.766Z,2.65
2022-10-13T11:05:06.719Z,3.08
2022-10-13T11:07:34.095Z,4.43
2022-10-13T11:10:05.131Z,3.08
2022-10-13T11:12:55.951Z,3.25
2022-10-13T11:15:26.415Z,2.90
2022-10-13T11:17:54.032Z,5.70
2022-10-13T11:20:21.182Z,2.65
2022-10-13T11:23:14.015Z,2.50
2022-10-13T11:25:48.991Z,2.95
2022-10-13T11:28:22.373Z,4.13
2022-10-13T11:30:56.335Z,2.50
2022-10-13T11:33:39.089Z,5.07
2022-10-13T11:36:29.885Z,2.40
2022-10-13T11:39:28.173Z,4.82
2022-10-13T11:42:25.433Z,3.47
2022-10-13T11:45:18.464Z,6.03
2022-10-13T11:47:57.878Z,4.53
2022-10-13T11:50:49.938Z,6.88
2022-10-13T11:53:32.862Z,4.75
2022-10-13T11:56:04.071Z,5.50
2022-10-13T11:58:33.131Z,4.95
2022-10-13T12:01:02.274Z,6.43
2022-10-13T12:03:32.893Z,5.75
2022-10-13T12:06:04.792Z,6.82
2022-10-13T12:08:36.593Z,8.15
2022-10-13T12:11:07.770Z,4.13
2022-10-13T12:13:37.030Z,3.17
2022-10-13T12:16:08.423Z,4.60
2022-10-13T12:18:39.408Z,3.65
2022-10-13T12:21:20.431Z,4.15
2022-10-13T12:23:52.595Z,4.63
2022-10-13T12:26:23.027Z,4.95
2022-10-13T12:28:56.988Z,3.45
2022-10-13T12:31:38.266Z,6.03
2022-10-13T12:34:19.253Z,4.55
2022-10-13T12:36:54.241Z,3.15
2022-10-13T12:39:21.874Z,3.13
2022-10-13T12:41:49.779Z,3.10
2022-10-13T12:44:22.435Z,3.47
2022-10-13T12:46:56.344Z,4.43
2022-10-13T12:49:29.356Z,7.05
2022-10-13T12:52:16.632Z,4.95
2022-10-13T12:54:50.108Z,5.55
2022-10-13T12:57:37.803Z,4.93
2022-10-13T13:00:26.929Z,4.57
2022-10-13T13:03:07.441Z,4.45
2022-10-13T13:05:45.810Z,4.93
2022-10-13T13:08:30.039Z,4.38
2022-10-13T13:11:03.278Z,3.97
2022-10-13T13:13:31.255Z,4.93
2022-10-13T13:16:19.322Z,3.30
2022-10-13T13:18:48.354Z,5.88
2022-10-13T13:21:18.019Z,3.45
2022-10-13T13:23:52.715Z,3.13
2022-10-13T13:26:24.025Z,3.45
2022-10-13T13:28:56.398Z,3.97
2022-10-13T13:31:26.969Z,4.40
2022-10-13T13:33:54.197Z,4.40
2022-10-13T13:36:26.008Z,5.25
2022-10-13T13:38:54.775Z,4.13
2022-10-13T13:41:22.526Z,6.32
2022-10-13T13:43:52.620Z,5.60
2022-10-13T13:46:23.669Z,5.00
2022-10-13T13:48:53.331Z,7.88
2022-10-13T13:51:20.711Z,4.75
2022-10-13T13:53:49.534Z,4.97
2022-10-13T13:56:20.436Z,6.50
2022-10-13T13:58:47.806Z,5.32
2022-10-13T14:01:16.032Z,5.28
2022-10-13T14:03:43.401Z,3.90
2022-10-13T14:06:21.773Z,5.47
2022-10-13T14:08:49.490Z,8.73
2022-10-13T14:11:17.341Z,8.35
2022-10-13T14:13:45.748Z,11.30
2022-10-13T14:16:18.244Z,5.03
2022-10-13T14:18:46.260Z,6.03
2022-10-13T14:21:13.525Z,6.18
2022-10-13T14:23:45.762Z,3.83
2022-10-13T14:26:14.128Z,7.25
2022-10-13T14:28:42.549Z,5.07
2022-10-13T14:31:10.495Z,6.40
2022-10-13T14:33:38.496Z,8.80
2022-10-13T14:36:07.242Z,6.53
2022-10-13T14:38:35.324Z,5.20
2022-10-13T14:41:04.645Z,6.00
2022-10-13T14:43:32.236Z,4.93
2022-10-13T14:46:04.547Z,8.57
2022-10-13T14:48:33.171Z,8.80
2022-10-13T14:51:05.097Z,7.63
2022-10-13T14:53:34.661Z,8.25
2022-10-13T14:56:02.177Z,7.40
2022-10-13T14:58:31.414Z,7.25
2022-10-13T15:00:59.258Z,9.10
2022-10-13T15:03:28.149Z,7.68
2022-10-13T15:05:55.418Z,7.38
2022-10-13T15:08:24.854Z,8.95
2022-10-13T15:11:04.637Z,11.82
2022-10-13T15:13:32.669Z,8.45
2022-10-13T15:16:04.913Z,7.80
2022-10-13T15:18:33.401Z,9.05
2022-10-13T15:21:00.824Z,8.95
2022-10-13T15:23:28.389Z,11.80
2022-10-13T15:26:01.748Z,8.57
2022-10-13T15:28:35.524Z,9.90
2022-10-13T15:31:03.192Z,11.80
2022-10-13T15:33:30.788Z,9.25
2022-10-13T15:35:58.767Z,11.15
2022-10-13T15:38:27.576Z,9.25
2022-10-13T15:41:00.673Z,13.52
2022-10-13T15:43:29.029Z,16.63
2022-10-13T15:46:00.736Z,9.32
2022-10-13T15:48:28.184Z,8.43
2022-10-13T15:50:55.565Z,11.40
2022-10-13T15:53:23.040Z,9.60
2022-10-13T15:55:50.707Z,7.35
2022-10-13T15:58:18.513Z,11.25
2022-10-13T16:00:46.044Z,9.77
2022-10-13T16:03:18.455Z,10.48
2022-10-13T16:05:46.770Z,11.70
2022-10-13T16:08:15.072Z,13.52
2022-10-13T16:10:43.148Z,8.43
2022-10-13T16:13:14.114Z,10.70
2022-10-13T16:15:42.722Z,11.63
2022-10-13T16:18:11.339Z,12.90
2022-10-13T16:20:40.850Z,7.43
2022-10-13T16:23:08.138Z,11.75
2022-10-13T16:25:39.447Z,9.07
2022-10-13T16:28:06.642Z,9.32
2022-10-13T16:30:37.124Z,9.02
2022-10-13T16:33:04.367Z,9.10
2022-10-13T16:35:32.050Z,12.45
2022-10-13T16:38:00.583Z,14.98
2022-10-13T16:40:27.997Z,10.63
2022-10-13T16:42:55.553Z,13.70
2022-10-13T16:45:41.120Z,15.40
2022-10-13T16:48:10.849Z,13.60
2022-10-13T16:50:38.675Z,11.65
2022-10-13T16:53:06.015Z,12.15
2022-10-13T16:55:33.248Z,15.43
2022-10-13T16:58:00.571Z,16.52
2022-10-13T17:00:27.852Z,18.42
2022-10-13T17:02:56.328Z,19.10
2022-10-13T17:05:23.653Z,19.45
2022-10-13T17:07:53.784Z,16.05
2022-10-13T17:10:21.179Z,16.77
2022-10-13T17:12:50.959Z,13.43
2022-10-13T17:15:20.316Z,16.75
2022-10-13T17:17:47.745Z,15.93
2022-10-13T17:20:15.036Z,20.40
2022-10-13T17:22:45.969Z,19.95
2022-10-13T17:25:13.736Z,16.08
2022-10-13T17:27:41.314Z,14.07
2022-10-13T17:30:09.273Z,9.93
2022-10-13T17:32:39.951Z,16.42
2022-10-13T17:35:07.939Z,10.02
2022-10-13T17:37:35.790Z,14.00
2022-10-13T17:40:03.062Z,13.13
2022-10-13T17:42:31.060Z,12.02
2022-10-13T17:44:59.910Z,9.43
2022-10-13T17:47:27.420Z,14.77
2022-10-13T17:49:56.005Z,11.48
2022-10-13T17:52:24.195Z,11.93
2022-10-13T17:54:51.498Z,10.25
2022-10-13T17:57:18.868Z,10.80
2022-10-13T17:59:46.550Z,12.80
2022-10-13T18:02:14.357Z,9.68
2022-10-13T18:04:42.380Z,11.25
2022-10-13T18:07:09.885Z,8.88
2022-10-13T18:09:37.082Z,18.10
2022-10-13T18:12:05.444Z,10.35
2022-10-13T18:14:32.814Z,8.48
2022-10-13T18:17:00.041Z,7.93
2022-10-13T18:19:28.121Z,8.23
2022-10-13T18:21:56.810Z,9.65
2022-10-13T18:24:26.080Z,8.40
2022-10-13T18:26:56.008Z,10.88
2022-10-13T18:29:24.397Z,6.63
2022-10-13T18:31:55.253Z,9.35
2022-10-13T18:34:23.480Z,8.57
2022-10-13T18:36:55.187Z,9.88
2022-10-13T18:39:25.776Z,7.80
2022-10-13T18:41:54.348Z,9.57
2022-10-13T18:44:23.471Z,5.60
2022-10-13T18:46:54.027Z,6.35
2022-10-13T18:49:31.187Z,6.05
2022-10-13T18:51:59.509Z,6.00
2022-10-13T18:54:28.130Z,5.40
2022-10-13T18:56:55.339Z,5.90
2022-10-13T18:59:23.671Z,6.85
2022-10-13T19:01:50.908Z,7.18
2022-10-13T19:04:18.087Z,5.45
2022-10-13T19:06:46.683Z,6.60
2022-10-13T19:09:15.686Z,7.15
2022-10-13T19:11:43.286Z,6.22
2022-10-13T19:14:14.094Z,5.88
2022-10-13T19:16:43.646Z,6.80
2022-10-13T19:19:11.810Z,5.63
2022-10-13T19:21:39.809Z,5.80
2022-10-13T19:24:09.952Z,5.30
2022-10-13T19:26:37.616Z,6.45
2022-10-13T19:29:13.659Z,6.60
2022-10-13T19:31:42.959Z,6.32
2022-10-13T19:34:12.018Z,4.32
2022-10-13T19:36:45.968Z,6.40
2022-10-13T19:39:15.618Z,4.68
2022-10-13T19:41:44.795Z,5.85
2022-10-13T19:44:12.636Z,6.88
2022-10-13T19:46:42.867Z,4.05
2022-10-13T19:49:12.508Z,5.57
2022-10-13T19:54:13.141Z,6.68
2022-10-13T19:56:47.410Z,5.20
2022-10-13T19:59:15.761Z,2.78
2022-10-13T20:01:43.479Z,6.43
2022-10-13T20:04:15.746Z,5.70
2022-10-13T20:06:44.511Z,5.95
2022-10-13T20:09:12.269Z,9.13
2022-10-13T20:11:39.606Z,4.40
2022-10-13T20:14:07.019Z,6.75
2022-10-13T20:16:35.412Z,7.15
2022-10-13T20:19:03.180Z,5.50
2022-10-13T20:21:31.857Z,6.55
2022-10-13T20:24:00.371Z,4.45
2022-10-13T20:26:27.582Z,3.28
2022-10-13T20:28:55.577Z,4.68
2022-10-13T20:31:23.828Z,4.00
2022-10-13T20:33:58.621Z,4.68
2022-10-13T20:36:36.047Z,5.47
2022-10-13T20:39:06.278Z,4.53
2022-10-13T20:41:35.492Z,4.95
2022-10-13T20:44:03.319Z,3.63
2022-10-13T20:46:33.797Z,3.88
2022-10-13T20:49:16.593Z,3.78
2022-10-13T20:51:44.785Z,4.15
2022-10-13T20:54:13.439Z,5.85
2022-10-13T20:56:41.816Z,5.57
2022-10-13T20:59:12.651Z,6.75
2022-10-13T21:01:39.941Z,4.72
2022-10-13T21:04:07.999Z,5.85
2022-10-13T21:06:35.986Z,3.92
2022-10-13T21:09:17.654Z,6.50
2022-10-13T21:11:56.997Z,3.53
2022-10-13T21:14:35.123Z,3.67
2022-10-13T21:17:13.438Z,3.17
2022-10-13T21:19:51.603Z,3.65
2022-10-13T21:22:29.645Z,3.85
2022-10-13T21:25:15.120Z,4.75
2022-10-13T21:27:54.845Z,4.03
2022-10-13T21:30:36.945Z,5.55
2022-10-13T21:33:15.481Z,4.70
2022-10-13T21:35:54.451Z,4.85
2022-10-13T21:38:33.264Z,4.07
2022-10-13T21:41:14.487Z,4.13
2022-10-13T21:43:55.671Z,4.45
2022-10-13T21:46:35.468Z,3.50
2022-10-13T21:49:14.275Z,5.03
2022-10-13T21:51:52.524Z,5.38
2022-10-13T21:54:30.741Z,4.80
2022-10-13T21:57:08.849Z,3.25
2022-10-13T21:59:47.599Z,5.20
2022-10-13T22:02:27.078Z,6.47
2022-10-13T22:05:05.482Z,5.45
2022-10-13T22:07:44.815Z,5.15
2022-10-13T22:10:12.084Z,4.90
2022-10-13T22:12:50.621Z,4.07
2022-10-13T22:15:34.562Z,3.15
2022-10-13T22:18:13.099Z,3.55
2022-10-13T22:20:51.237Z,5.00
2022-10-13T22:23:32.804Z,6.05
2022-10-13T22:26:11.740Z,3.70
2022-10-13T22:28:51.963Z,5.88
2022-10-13T22:31:32.882Z,5.05
2022-10-13T22:34:17.880Z,6.03
2022-10-13T22:37:12.188Z,4.97
2022-10-13T22:39:51.305Z,5.65
2022-10-13T22:42:29.553Z,6.75
2022-10-13T22:45:08.090Z,6.43
2022-10-13T22:47:51.401Z,8.07
2022-10-13T22:50:30.592Z,5.93
2022-10-13T22:53:09.234Z,5.63
2022-10-13T22:55:48.832Z,5.22
2022-10-13T22:58:28.292Z,6.30
2022-10-13T23:01:13.994Z,6.88
2022-10-13T23:03:55.587Z,6.13
2022-10-13T23:06:35.192Z,6.05
2022-10-13T23:09:16.087Z,4.50
2022-10-13T23:11:59.659Z,6.93
2022-10-13T23:14:33.189Z,5.63
2022-10-13T23:17:00.581Z,5.38
2022-10-13T23:19:27.889Z,4.43
2022-10-13T23:21:56.035Z,6.07
2022-10-13T23:24:25.256Z,7.03
2022-10-13T23:26:52.432Z,6.15
2022-10-13T23:29:19.643Z,6.97
2022-10-13T23:31:46.858Z,4.95
2022-10-13T23:34:13.977Z,4.07
2022-10-13T23:36:43.430Z,4.60
2022-10-13T23:39:11.546Z,6.93
2022-10-13T23:41:38.996Z,5.38
2022-10-13T23:44:06.400Z,6.88
2022-10-13T23:46:44.964Z,7.55
2022-10-13T23:49:26.170Z,8.23
2022-10-13T23:52:09.951Z,9.93
2022-10-13T23:54:49.022Z,5.85
2022-10-13T23:57:30.069Z,8.68
